Time;durP1;ratioP1;P1;durP2;ratioP2;P2;SDS_P1;SDS_P2;PMS_P1;PMS_P2;Temp;Humidity;BMP_temperature;BMP_pressure;BME280_temperature;BME280_humidity;BME280_pressure;Samples;Min_cycle;Max_cycle;Signal;HPM_P1;HPM_P2
2022/08/30 00:01:09;;;;;;;2.97;1.70;;;15.60;99.90;;;;;;5070381;28;20050;-53
2022/08/30 00:03:44;;;;;;;1.70;1.60;;;15.50;99.90;;;;;;5070722;28;20267;-54
2022/08/30 00:06:11;;;;;;;2.30;2.03;;;15.40;99.90;;;;;;5070783;28;20475;-53
2022/08/30 00:08:37;;;;;;;4.88;2.78;;;15.40;99.90;;;;;;5068997;28;20132;-53
2022/08/30 00:11:05;;;;;;;4.75;2.40;;;15.40;99.90;;;;;;5064834;28;20112;-53
2022/08/30 00:13:30;;;;;;;3.10;2.65;;;15.40;99.90;;;;;;5080542;28;20021;-54
2022/08/30 00:15:57;;;;;;;2.88;2.42;;;15.50;99.90;;;;;;5090330;28;20111;-53
2022/08/30 00:18:23;;;;;;;3.88;2.33;;;15.40;99.90;;;;;;5090471;28;20040;-53
2022/08/30 00:20:49;;;;;;;3.47;2.70;;;15.40;99.90;;;;;;5090017;28;20550;-53
2022/08/30 00:23:16;;;;;;;4.00;2.42;;;15.40;99.90;;;;;;5090535;28;20036;-53
2022/08/30 00:25:43;;;;;;;2.70;2.50;;;15.30;99.90;;;;;;5090594;28;20086;-53
2022/08/30 00:28:09;;;;;;;3.30;2.60;;;15.20;99.90;;;;;;5090349;28;20016;-53
2022/08/30 00:30:37;;;;;;;3.83;2.90;;;15.10;99.90;;;;;;5088180;28;20028;-54
2022/08/30 00:33:03;;;;;;;3.17;2.88;;;15.20;99.90;;;;;;5081741;28;20019;-53
2022/08/30 00:35:29;;;;;;;3.85;2.90;;;15.20;99.90;;;;;;5090357;28;20386;-53
2022/08/30 00:37:55;;;;;;;3.28;2.97;;;15.10;99.90;;;;;;5090169;28;20622;-53
2022/08/30 00:40:21;;;;;;;7.82;4.45;;;15.10;99.90;;;;;;5090290;28;20107;-53
2022/08/30 00:42:47;;;;;;;3.97;3.58;;;15.10;99.90;;;;;;5089275;28;20020;-53
2022/08/30 00:45:18;;;;;;;7.55;3.90;;;15.10;99.90;;;;;;5089887;28;20020;-53
2022/08/30 00:47:44;;;;;;;6.22;3.50;;;15.10;99.90;;;;;;5089580;28;20065;-53
2022/08/30 00:50:11;;;;;;;5.13;3.80;;;15.10;99.90;;;;;;5090368;28;20391;-52
2022/08/30 00:52:40;;;;;;;4.40;3.60;;;15.00;99.90;;;;;;5089184;28;20189;-53
2022/08/30 00:55:05;;;;;;;8.18;3.33;;;15.00;99.90;;;;;;5089873;28;20251;-53
2022/08/30 00:57:31;;;;;;;4.05;3.28;;;15.00;99.90;;;;;;5089865;28;20028;-53
2022/08/30 00:59:57;;;;;;;3.63;3.28;;;14.90;99.90;;;;;;5089566;28;20115;-53
2022/08/30 01:02:24;;;;;;;6.22;3.90;;;14.90;99.90;;;;;;5079312;28;20324;-53
2022/08/30 01:04:51;;;;;;;5.47;4.25;;;14.90;99.90;;;;;;5089499;28;20024;-53
2022/08/30 01:07:18;;;;;;;6.47;4.90;;;14.80;99.90;;;;;;5089399;28;20036;-53
2022/08/30 01:09:43;;;;;;;4.60;3.88;;;14.80;99.90;;;;;;5089519;28;20020;-53
2022/08/30 01:12:10;;;;;;;4.45;4.05;;;14.80;99.90;;;;;;5088906;28;20160;-53
2022/08/30 01:14:36;;;;;;;5.00;4.50;;;14.70;99.90;;;;;;5088163;28;20032;-53
2022/08/30 01:17:02;;;;;;;8.10;4.55;;;14.70;99.90;;;;;;5089212;28;20035;-53
2022/08/30 01:19:33;;;;;;;5.40;3.92;;;14.70;99.90;;;;;;5089076;28;20032;-53
2022/08/30 01:22:10;;;;;;;7.75;4.90;;;14.60;99.90;;;;;;5088932;28;20438;-53
2022/08/30 01:24:36;;;;;;;5.30;4.80;;;14.60;99.90;;;;;;5089445;28;20035;-53
2022/08/30 01:27:01;;;;;;;5.35;4.85;;;14.60;99.90;;;;;;5089278;28;20414;-53
2022/08/30 01:29:27;;;;;;;7.07;5.90;;;14.50;99.90;;;;;;5088941;28;20036;-53
2022/08/30 01:31:53;;;;;;;5.35;4.85;;;14.60;99.90;;;;;;5072031;28;20024;-53
2022/08/30 01:34:18;;;;;;;6.30;5.57;;;14.50;99.90;;;;;;5080504;28;20384;-52
2022/08/30 01:36:45;;;;;;;7.85;6.43;;;14.50;99.90;;;;;;5088487;28;20056;-53
2022/08/30 01:39:13;;;;;;;7.47;6.25;;;14.50;99.90;;;;;;5066144;28;20070;-53
2022/08/30 01:41:38;;;;;;;6.85;6.13;;;14.50;99.90;;;;;;5068319;28;20024;-53
2022/08/30 01:44:07;;;;;;;6.25;5.65;;;14.50;99.90;;;;;;5068363;28;20187;-53
2022/08/30 01:46:36;;;;;;;5.72;5.13;;;14.40;99.90;;;;;;5066546;28;20215;-53
2022/08/30 01:49:04;;;;;;;8.20;6.53;;;14.30;99.90;;;;;;5065493;28;20060;-53
2022/08/30 01:51:30;;;;;;;7.15;6.45;;;14.40;99.90;;;;;;5066120;28;20020;-52
2022/08/30 01:53:56;;;;;;;6.13;5.53;;;14.40;99.90;;;;;;5065758;28;20028;-53
2022/08/30 01:56:24;;;;;;;10.27;7.28;;;14.40;99.90;;;;;;5067187;28;20048;-53
2022/08/30 01:58:50;;;;;;;6.07;5.40;;;14.30;99.90;;;;;;5068432;28;20054;-54
2022/08/30 02:01:18;;;;;;;7.32;6.40;;;14.40;99.90;;;;;;5065353;28;20024;-53
2022/08/30 02:03:45;;;;;;;7.97;7.18;;;14.30;99.90;;;;;;5075299;28;20056;-52
2022/08/30 02:06:15;;;;;;;8.50;7.53;;;14.30;99.90;;;;;;5068242;28;20071;-53
2022/08/30 02:08:41;;;;;;;8.20;7.30;;;14.30;99.90;;;;;;5067943;28;20024;-53
2022/08/30 02:11:09;;;;;;;7.85;6.88;;;14.30;99.90;;;;;;5067495;28;20463;-53
2022/08/30 02:13:36;;;;;;;9.07;7.43;;;14.30;99.90;;;;;;5067608;28;20506;-53
2022/08/30 02:16:03;;;;;;;8.07;7.25;;;14.30;99.90;;;;;;5067751;28;20048;-53
2022/08/30 02:18:29;;;;;;;8.88;7.97;;;14.30;99.90;;;;;;5067931;28;20162;-53
2022/08/30 02:20:54;;;;;;;10.18;8.25;;;14.30;99.90;;;;;;5067317;28;20090;-53
2022/08/30 02:23:21;;;;;;;9.25;7.93;;;14.20;99.90;;;;;;5068136;28;20044;-53
2022/08/30 02:25:49;;;;;;;10.63;8.60;;;14.20;99.90;;;;;;5068164;28;20035;-52
2022/08/30 02:28:15;;;;;;;9.77;8.77;;;14.30;99.90;;;;;;5068056;28;20029;-53
2022/08/30 02:30:41;;;;;;;11.30;8.88;;;14.20;99.90;;;;;;5065473;28;20039;-53
2022/08/30 02:33:07;;;;;;;10.98;7.75;;;14.20;99.90;;;;;;5073637;28;20423;-53
2022/08/30 02:35:32;;;;;;;10.82;8.02;;;14.20;99.90;;;;;;5070776;28;20027;-53
2022/08/30 02:37:58;;;;;;;9.68;7.75;;;14.10;99.90;;;;;;5067239;28;20028;-53
2022/08/30 02:40:23;;;;;;;9.35;8.38;;;14.20;99.90;;;;;;5067933;28;20066;-53
2022/08/30 02:42:49;;;;;;;10.20;8.38;;;14.20;99.90;;;;;;5066207;28;20052;-54
2022/08/30 02:45:14;;;;;;;10.35;8.85;;;14.20;99.90;;;;;;5067037;28;20024;-54
2022/08/30 02:47:41;;;;;;;11.10;8.65;;;14.30;99.90;;;;;;5067818;28;20033;-54
2022/08/30 02:50:08;;;;;;;14.30;9.98;;;14.30;99.90;;;;;;5069667;28;20051;-53
2022/08/30 02:52:35;;;;;;;12.02;9.50;;;14.30;99.90;;;;;;5071574;28;20384;-53
2022/08/30 02:55:00;;;;;;;13.00;9.88;;;14.40;99.90;;;;;;5071933;28;20089;-53
2022/08/30 02:57:26;;;;;;;12.50;10.73;;;14.30;99.90;;;;;;5071887;28;20119;-53
2022/08/30 02:59:52;;;;;;;13.23;10.35;;;14.40;99.90;;;;;;5072109;28;20031;-54
2022/08/30 03:02:18;;;;;;;12.38;10.32;;;14.40;99.90;;;;;;5072772;28;20020;-53
2022/08/30 03:04:43;;;;;;;9.57;7.88;;;14.40;99.90;;;;;;5085002;28;20024;-53
2022/08/30 03:07:11;;;;;;;10.32;9.13;;;14.40;99.90;;;;;;5092168;28;20051;-54
2022/08/30 03:09:37;;;;;;;14.63;9.73;;;14.40;99.90;;;;;;5092212;28;20077;-53
2022/08/30 03:12:05;;;;;;;14.15;10.25;;;14.40;99.90;;;;;;5091686;28;20020;-53
2022/08/30 03:14:31;;;;;;;13.48;9.65;;;14.40;99.90;;;;;;5092134;28;20099;-53
2022/08/30 03:16:57;;;;;;;12.13;9.45;;;14.40;99.90;;;;;;5091743;28;20116;-53
2022/08/30 03:19:22;;;;;;;14.82;11.13;;;14.40;99.90;;;;;;5091683;28;20503;-53
2022/08/30 03:21:49;;;;;;;17.25;12.07;;;14.40;99.90;;;;;;5091072;28;20032;-54
2022/08/30 03:24:14;;;;;;;13.30;10.20;;;14.40;99.90;;;;;;5091674;28;20533;-53
2022/08/30 03:26:40;;;;;;;12.77;9.57;;;14.30;99.90;;;;;;5091582;28;20039;-53
2022/08/30 03:29:05;;;;;;;13.80;9.90;;;14.30;99.90;;;;;;5091753;28;20039;-53
2022/08/30 03:31:31;;;;;;;12.80;10.40;;;14.30;99.90;;;;;;5078423;28;20434;-53
2022/08/30 03:33:56;;;;;;;12.38;9.90;;;14.30;99.90;;;;;;5082983;28;20024;-53
2022/08/30 03:36:22;;;;;;;13.27;10.32;;;14.20;99.90;;;;;;5091521;28;20020;-53
2022/08/30 03:38:47;;;;;;;14.10;11.15;;;14.20;99.90;;;;;;5091512;28;20035;-54
2022/08/30 03:41:13;;;;;;;13.63;10.60;;;14.30;99.90;;;;;;5090880;28;20319;-53
2022/08/30 03:43:39;;;;;;;11.82;9.77;;;14.20;99.90;;;;;;5091713;28;20020;-53
2022/08/30 03:46:05;;;;;;;11.23;10.02;;;14.20;99.90;;;;;;5091614;28;20805;-53
2022/08/30 03:48:30;;;;;;;11.55;9.52;;;14.20;99.90;;;;;;5091525;28;20118;-53
2022/08/30 03:50:56;;;;;;;11.80;9.55;;;14.20;99.90;;;;;;5090544;28;20099;-53
2022/08/30 03:53:22;;;;;;;10.35;8.25;;;14.20;99.90;;;;;;5091148;28;20020;-53
2022/08/30 03:55:47;;;;;;;9.40;8.20;;;14.20;99.90;;;;;;5091187;28;20024;-53
2022/08/30 03:58:13;;;;;;;10.40;8.48;;;14.20;99.90;;;;;;5091416;28;20027;-53
2022/08/30 04:00:38;;;;;;;12.52;10.25;;;14.20;99.90;;;;;;5090294;28;20054;-53
2022/08/30 04:03:04;;;;;;;10.68;8.95;;;14.30;99.90;;;;;;5078281;28;20033;-53
2022/08/30 04:05:30;;;;;;;13.27;10.20;;;14.30;99.90;;;;;;5090331;28;20553;-53
2022/08/30 04:07:55;;;;;;;12.07;9.77;;;14.30;99.90;;;;;;5090722;28;20028;-53
2022/08/30 04:10:21;;;;;;;12.15;9.40;;;14.30;99.90;;;;;;5090861;28;20024;-54
2022/08/30 04:12:48;;;;;;;14.13;10.52;;;14.30;99.90;;;;;;5090366;28;20060;-53
2022/08/30 04:15:14;;;;;;;12.27;10.00;;;14.30;99.90;;;;;;5091009;28;20034;-53
2022/08/30 04:17:40;;;;;;;11.52;8.32;;;14.30;99.90;;;;;;5090752;28;20024;-53
2022/08/30 04:20:06;;;;;;;11.65;9.55;;;14.30;99.90;;;;;;5091046;28;20391;-53
2022/08/30 04:22:32;;;;;;;11.55;9.80;;;14.30;99.90;;;;;;5090252;28;20027;-53
2022/08/30 04:24:58;;;;;;;12.45;10.43;;;14.30;99.90;;;;;;5089434;28;20020;-53
2022/08/30 04:27:23;;;;;;;13.77;10.45;;;14.30;99.90;;;;;;5090678;28;20030;-53
2022/08/30 04:29:49;;;;;;;17.63;12.18;;;14.40;99.90;;;;;;5078362;28;20032;-53
2022/08/30 04:32:15;;;;;;;16.27;10.85;;;14.40;99.90;;;;;;5068475;28;20472;-53
2022/08/30 04:34:41;;;;;;;17.35;10.95;;;14.50;99.90;;;;;;5070923;28;20028;-53
2022/08/30 04:37:06;;;;;;;16.15;11.43;;;14.50;99.90;;;;;;5070059;28;20024;-53
2022/08/30 04:39:32;;;;;;;17.17;10.05;;;14.50;99.90;;;;;;5069575;28;20024;-53
2022/08/30 04:41:58;;;;;;;16.95;11.45;;;14.50;99.90;;;;;;5068824;28;20028;-53
2022/08/30 04:44:26;;;;;;;18.73;12.23;;;14.60;99.90;;;;;;5069815;28;20035;-54
2022/08/30 04:46:52;;;;;;;19.92;11.98;;;14.60;99.90;;;;;;5069240;28;20078;-53
2022/08/30 04:49:17;;;;;;;18.17;11.15;;;14.60;99.90;;;;;;5069447;28;20025;-53
2022/08/30 04:51:43;;;;;;;18.05;10.73;;;14.70;99.90;;;;;;5069001;28;20032;-53
2022/08/30 04:54:08;;;;;;;19.00;11.55;;;14.70;99.90;;;;;;5069180;28;20100;-53
2022/08/30 04:56:34;;;;;;;23.33;12.73;;;14.80;99.90;;;;;;5069208;28;20476;-53
2022/08/30 04:58:59;;;;;;;23.33;13.00;;;14.80;99.90;;;;;;5069635;28;20024;-53
2022/08/30 05:01:28;;;;;;;19.25;11.75;;;14.90;99.90;;;;;;5068022;28;20029;-53
2022/08/30 05:03:55;;;;;;;19.38;11.20;;;15.00;99.90;;;;;;5081448;28;20031;-53
2022/08/30 05:06:22;;;;;;;23.38;13.23;;;15.00;99.90;;;;;;5089629;28;20053;-53
2022/08/30 05:08:48;;;;;;;20.67;12.80;;;15.00;99.90;;;;;;5080744;28;20102;-53
2022/08/30 05:11:15;;;;;;;22.80;12.32;;;15.10;99.90;;;;;;5068302;28;20025;-53
2022/08/30 05:13:41;;;;;;;23.98;12.80;;;15.10;99.90;;;;;;5066602;28;20446;-53
2022/08/30 05:16:07;;;;;;;16.77;10.35;;;15.20;99.90;;;;;;5076820;28;20108;-53
2022/08/30 05:18:33;;;;;;;18.67;11.30;;;15.20;99.90;;;;;;5069677;28;20430;-53
2022/08/30 05:21:09;;;;;;;21.08;11.52;;;15.20;99.90;;;;;;5064459;28;20480;-53
2022/08/30 05:23:36;;;;;;;24.05;13.13;;;15.30;99.90;;;;;;5072106;28;20038;-53
2022/08/30 05:26:30;;;;;;;21.67;11.68;;;15.30;99.90;;;;;;5070969;28;20478;-53
2022/08/30 05:28:56;;;;;;;30.58;11.13;;;15.40;99.90;;;;;;5063917;28;20392;-54
2022/08/30 05:31:31;;;;;;;22.25;13.45;;;15.40;99.90;;;;;;5066623;28;20021;-53
2022/08/30 05:33:57;;;;;;;25.15;15.13;;;15.40;99.90;;;;;;5070639;28;20024;-53
2022/08/30 05:36:26;;;;;;;23.30;14.20;;;15.40;99.90;;;;;;5068599;28;20531;-53
2022/08/30 05:38:53;;;;;;;21.98;14.10;;;15.50;99.90;;;;;;5068667;28;20099;-53
2022/08/30 05:41:20;;;;;;;24.13;14.05;;;15.50;99.90;;;;;;5067785;28;20032;-53
2022/08/30 05:43:47;;;;;;;29.38;17.70;;;15.60;99.90;;;;;;5068377;28;20048;-53
2022/08/30 05:46:18;;;;;;;24.30;15.98;;;15.50;99.90;;;;;;5068691;28;20020;-53
2022/08/30 05:48:43;;;;;;;;;;;15.60;99.90;;;;;;5069219;28;20368;-53
2022/08/30 05:51:13;;;;;;;25.17;15.15;;;15.60;99.90;;;;;;5068035;28;19926;-53
2022/08/30 05:53:39;;;;;;;22.95;15.55;;;15.60;99.90;;;;;;5068674;28;20111;-53
2022/08/30 05:56:08;;;;;;;27.52;17.63;;;15.60;99.90;;;;;;5068431;28;20221;-53
2022/08/30 05:58:34;;;;;;;26.80;17.10;;;15.60;99.90;;;;;;5068647;28;20319;-53
2022/08/30 06:01:01;;;;;;;27.30;16.55;;;15.60;99.90;;;;;;5067709;28;20043;-53
2022/08/30 06:03:26;;;;;;;22.90;15.48;;;15.60;99.90;;;;;;5077385;28;20107;-53
2022/08/30 06:05:52;;;;;;;21.98;14.77;;;15.70;99.90;;;;;;5088700;28;20104;-53
2022/08/30 06:08:18;;;;;;;21.95;14.30;;;15.70;99.90;;;;;;5088669;28;20483;-53
2022/08/30 06:10:43;;;;;;;18.45;12.43;;;15.80;99.90;;;;;;5086906;28;20020;-54
2022/08/30 06:13:09;;;;;;;22.42;14.00;;;15.80;99.90;;;;;;5088871;28;20020;-53
2022/08/30 06:15:36;;;;;;;21.13;14.45;;;15.90;99.90;;;;;;5088836;28;20408;-53
2022/08/30 06:18:01;;;;;;;21.30;14.32;;;15.90;99.90;;;;;;5088396;28;20050;-53
2022/08/30 06:20:27;;;;;;;21.58;13.57;;;15.90;99.90;;;;;;5088462;28;20024;-53
2022/08/30 06:22:52;;;;;;;21.58;14.77;;;16.00;99.90;;;;;;5088080;28;20062;-53
2022/08/30 06:25:18;;;;;;;18.00;13.27;;;15.90;99.90;;;;;;5090568;28;20491;-54
2022/08/30 06:27:43;;;;;;;18.98;13.57;;;16.00;99.90;;;;;;5092747;28;20500;-53
2022/08/30 06:30:09;;;;;;;17.27;12.10;;;16.00;99.90;;;;;;5092630;28;20032;-51
2022/08/30 06:32:36;;;;;;;14.70;11.38;;;16.00;99.90;;;;;;5080604;28;20020;-53
2022/08/30 06:35:02;;;;;;;16.85;10.57;;;16.10;99.90;;;;;;5088052;28;20258;-53
2022/08/30 06:37:28;;;;;;;14.05;10.82;;;16.10;99.90;;;;;;5092637;28;20035;-53
2022/08/30 06:39:56;;;;;;;13.63;9.63;;;16.20;99.90;;;;;;5092814;28;20091;-54
2022/08/30 06:42:22;;;;;;;13.80;10.65;;;16.20;99.90;;;;;;5092074;28;20162;-54
2022/08/30 06:44:48;;;;;;;11.90;10.00;;;16.20;99.90;;;;;;5092637;28;20028;-54
2022/08/30 06:47:13;;;;;;;12.93;10.30;;;16.30;99.90;;;;;;5092134;28;20031;-54
2022/08/30 06:49:39;;;;;;;15.57;11.18;;;16.30;99.90;;;;;;5092470;28;20473;-54
2022/08/30 06:52:04;;;;;;;13.27;10.57;;;16.30;99.90;;;;;;5091545;28;20032;-53
2022/08/30 06:54:30;;;;;;;12.45;9.95;;;16.30;99.90;;;;;;5092723;28;20052;-53
2022/08/30 06:56:55;;;;;;;9.25;7.45;;;16.30;99.90;;;;;;5092110;28;20509;-54
2022/08/30 06:59:21;;;;;;;12.27;9.27;;;16.30;99.90;;;;;;5092041;28;20423;-53
2022/08/30 07:01:47;;;;;;;11.60;9.27;;;16.30;99.90;;;;;;5090048;28;20111;-53
2022/08/30 07:04:13;;;;;;;13.45;10.55;;;16.40;99.90;;;;;;5083546;28;20259;-53
2022/08/30 07:06:38;;;;;;;10.38;8.57;;;16.40;99.90;;;;;;5092083;28;20479;-53
2022/08/30 07:09:04;;;;;;;11.07;8.98;;;16.40;99.90;;;;;;5073888;28;20032;-53
2022/08/30 07:11:31;;;;;;;9.98;8.13;;;16.40;99.90;;;;;;5090153;28;20020;-53
2022/08/30 07:13:57;;;;;;;10.98;8.35;;;16.30;99.90;;;;;;5080686;28;20433;-53
2022/08/30 07:16:22;;;;;;;10.45;8.70;;;16.40;99.90;;;;;;5070466;28;20031;-53
2022/08/30 07:21:38;;;;;;;7.57;6.65;;;16.50;99.90;;;;;;5068414;28;20050;-54
2022/08/30 07:24:05;;;;;;;6.70;6.05;;;16.50;99.90;;;;;;5069951;28;20033;-54
2022/08/30 07:26:37;;;;;;;6.78;5.65;;;16.60;99.90;;;;;;5050241;28;20507;-53
2022/08/30 07:29:03;;;;;;;9.00;7.03;;;16.60;99.90;;;;;;5048539;28;20523;-54
2022/08/30 07:31:29;;;;;;;6.18;5.28;;;16.70;99.90;;;;;;5055927;28;20031;-53
2022/08/30 07:33:55;;;;;;;7.80;5.63;;;16.80;99.90;;;;;;5082106;28;20383;-53
2022/08/30 07:36:21;;;;;;;7.05;6.15;;;16.90;99.90;;;;;;5080698;28;20078;-53
2022/08/30 07:38:49;;;;;;;5.88;4.80;;;16.90;99.90;;;;;;5073660;28;20029;-54
2022/08/30 07:41:23;;;;;;;5.75;4.10;;;17.00;99.90;;;;;;5086856;28;20040;-55
2022/08/30 07:43:50;;;;;;;4.70;4.20;;;17.10;99.90;;;;;;5090653;28;20073;-55
2022/08/30 07:46:16;;;;;;;6.25;5.00;;;17.20;99.90;;;;;;5090296;28;20032;-55
2022/08/30 07:48:42;;;;;;;6.53;5.88;;;17.40;99.90;;;;;;5079368;28;20017;-54
2022/08/30 07:51:10;;;;;;;6.28;5.68;;;17.60;99.90;;;;;;5085552;28;20387;-54
2022/08/30 07:53:36;;;;;;;4.55;3.97;;;17.80;99.90;;;;;;5090187;28;20027;-54
2022/08/30 07:56:02;;;;;;;7.10;4.47;;;18.00;99.90;;;;;;5090299;28;20024;-54
2022/08/30 07:58:28;;;;;;;4.53;3.70;;;18.20;99.90;;;;;;5088780;28;20032;-54
2022/08/30 08:00:53;;;;;;;4.30;3.47;;;18.60;99.90;;;;;;5089498;28;20032;-55
2022/08/30 08:03:19;;;;;;;4.55;3.80;;;18.70;99.90;;;;;;5089994;28;20032;-54
2022/08/30 08:05:45;;;;;;;3.88;3.40;;;18.90;99.90;;;;;;5088860;28;20020;-54
2022/08/30 08:08:12;;;;;;;4.97;3.35;;;19.20;99.90;;;;;;5089816;28;20028;-54
2022/08/30 08:10:40;;;;;;;5.35;3.92;;;19.50;99.90;;;;;;5089612;28;20105;-55
2022/08/30 08:13:06;;;;;;;6.88;3.75;;;19.90;99.90;;;;;;5088200;28;20055;-55
2022/08/30 08:15:32;;;;;;;4.47;3.53;;;20.00;99.90;;;;;;5089997;28;20499;-55
2022/08/30 08:17:58;;;;;;;3.70;3.08;;;20.80;99.90;;;;;;5085052;28;20708;-54
2022/08/30 08:20:24;;;;;;;2.67;2.45;;;21.80;99.90;;;;;;5075984;28;20104;-56
2022/08/30 08:22:50;;;;;;;2.67;1.95;;;23.20;99.90;;;;;;5078991;28;20020;-56
2022/08/30 08:25:16;;;;;;;1.70;1.60;;;24.40;98.60;;;;;;5069162;28;20033;-56
2022/08/30 08:27:42;;;;;;;2.28;2.08;;;25.60;96.90;;;;;;5068901;28;20492;-55
2022/08/30 08:30:08;;;;;;;2.08;1.50;;;26.00;94.60;;;;;;5067046;28;20115;-56
2022/08/30 08:32:34;;;;;;;1.75;1.52;;;26.70;93.10;;;;;;5058896;28;20031;-56
2022/08/30 08:34:59;;;;;;;1.58;1.48;;;27.10;90.70;;;;;;5068026;28;20376;-55
2022/08/30 08:37:26;;;;;;;1.50;1.40;;;26.50;90.50;;;;;;5064992;28;20031;-55
2022/08/30 08:39:52;;;;;;;2.85;1.80;;;25.90;90.50;;;;;;5080326;28;20494;-55
2022/08/30 08:42:46;;;;;;;1.80;1.70;;;25.30;91.50;;;;;;5088355;28;20028;-54
2022/08/30 08:45:22;;;;;;;2.40;2.00;;;24.60;92.60;;;;;;5089078;28;20414;-55
2022/08/30 08:48:29;;;;;;;2.22;2.05;;;23.70;93.60;;;;;;5088576;28;20509;-54
2022/08/30 08:53:42;;;;;;;2.08;1.95;;;22.40;96.40;;;;;;5067831;28;20047;-54
2022/08/30 08:56:14;;;;;;;2.65;2.28;;;21.90;98.10;;;;;;5068612;28;20035;-54
2022/08/30 08:58:49;;;;;;;2.30;2.10;;;21.50;98.00;;;;;;5068162;28;20024;-54
2022/08/30 09:01:17;;;;;;;3.85;2.90;;;21.30;99.30;;;;;;5064600;28;20020;-54
2022/08/30 09:03:43;;;;;;;2.38;2.17;;;21.20;99.60;;;;;;5065432;28;20100;-55
2022/08/30 09:06:39;;;;;;;4.20;2.50;;;21.20;99.90;;;;;;5072197;28;20025;-54
2022/08/30 09:09:05;;;;;;;2.75;1.95;;;21.30;99.90;;;;;;5066537;28;20028;-55
2022/08/30 09:11:33;;;;;;;2.90;2.50;;;21.60;99.90;;;;;;5067928;28;20039;-54
2022/08/30 09:13:59;;;;;;;1.92;1.77;;;22.00;99.20;;;;;;5068346;28;20029;-56
2022/08/30 09:16:43;;;;;;;1.92;1.70;;;22.90;98.40;;;;;;5068227;28;20045;-56
2022/08/30 09:19:09;;;;;;;1.58;1.20;;;23.90;96.50;;;;;;5068097;28;20423;-54
2022/08/30 09:21:35;;;;;;;1.50;1.40;;;24.70;94.90;;;;;;5067369;28;20080;-55
2022/08/30 09:24:03;;;;;;;2.25;1.25;;;25.10;93.20;;;;;;5066823;28;20035;-55
2022/08/30 09:26:34;;;;;;;1.65;1.55;;;25.60;91.90;;;;;;5079640;28;20055;-54
2022/08/30 09:29:03;;;;;;;94.43;76.85;;;25.60;91.20;;;;;;5089456;28;20036;-54
2022/08/30 09:31:52;;;;;;;14.70;11.82;;;25.80;91.80;;;;;;5088927;28;20094;-53
2022/08/30 09:34:21;;;;;;;2.47;2.25;;;27.60;89.40;;;;;;5089133;28;20475;-53
2022/08/30 09:36:50;;;;;;;2.35;1.88;;;28.70;85.30;;;;;;5081933;28;20584;-53
2022/08/30 09:39:16;;;;;;;3.20;2.28;;;30.20;78.40;;;;;;5066286;28;20479;-55
2022/08/30 09:41:47;;;;;;;1.50;1.30;;;30.80;73.10;;;;;;5067844;28;20078;-53
2022/08/30 09:44:24;;;;;;;1.75;1.30;;;30.50;72.70;;;;;;5066557;28;20021;-53
2022/08/30 09:46:54;;;;;;;1.13;1.02;;;30.30;71.30;;;;;;5065981;28;20020;-54
2022/08/30 09:49:44;;;;;;;2.38;1.05;;;30.30;71.20;;;;;;5068740;28;20050;-55
2022/08/30 09:52:44;;;;;;;0.80;0.80;;;31.70;70.30;;;;;;5068063;28;20237;-53
2022/08/30 09:55:37;;;;;;;0.77;0.77;;;32.00;66.50;;;;;;5073166;28;20020;-54
2022/08/30 09:58:08;;;;;;;1.17;1.08;;;32.40;65.60;;;;;;5049100;28;20052;-54
2022/08/30 10:01:10;;;;;;;1.77;1.00;;;33.40;64.70;;;;;;5047739;28;20104;-54
2022/08/30 10:03:45;;;;;;;1.15;1.05;;;33.50;61.70;;;;;;5036150;28;20032;-54
2022/08/30 10:06:16;;;;;;;3.83;0.80;;;34.40;60.60;;;;;;5047396;28;20049;-54
2022/08/30 10:09:04;;;;;;;1.48;0.85;;;34.70;59.00;;;;;;5048135;28;20104;-55
2022/08/30 10:12:01;;;;;;;1.10;1.00;;;36.00;56.10;;;;;;5048090;28;20029;-54
2022/08/30 10:14:36;;;;;;;0.80;0.65;;;36.60;54.50;;;;;;5048689;28;20220;-54
2022/08/30 10:17:26;;;;;;;1.60;0.82;;;36.60;54.50;;;;;;5048292;28;20404;-54
2022/08/30 10:20:17;;;;;;;1.98;0.93;;;37.30;51.40;;;;;;5048471;28;20029;-54
2022/08/30 10:22:55;;;;;;;1.00;0.90;;;37.50;51.70;;;;;;5046566;28;20414;-54
2022/08/30 10:25:42;;;;;;;0.70;0.63;;;38.20;50.60;;;;;;5076427;28;20140;-54
2022/08/30 10:28:36;;;;;;;0.93;0.88;;;37.10;49.70;;;;;;5087383;28;20103;-56
2022/08/30 10:31:06;;;;;;;1.48;0.65;;;37.90;49.40;;;;;;5087999;28;20066;-54
2022/08/30 10:33:37;;;;;;;0.70;0.70;;;37.70;49.30;;;;;;5087262;28;20031;-54
2022/08/30 10:36:08;;;;;;;0.73;0.60;;;37.40;49.80;;;;;;5088713;28;20063;-54
2022/08/30 10:38:45;;;;;;;1.20;0.82;;;36.30;49.90;;;;;;5087204;28;20036;-55
2022/08/30 10:41:24;;;;;;;2.88;0.88;;;36.00;52.20;;;;;;5081633;28;20396;-54
2022/08/30 10:44:20;;;;;;;1.13;1.02;;;36.50;50.90;;;;;;5074102;28;20455;-54
2022/08/30 10:47:04;;;;;;;1.95;0.80;;;36.80;51.60;;;;;;5088367;28;20491;-54
2022/08/30 10:49:41;;;;;;;0.80;0.70;;;36.70;50.30;;;;;;5084005;28;20252;-54
2022/08/30 10:52:16;;;;;;;0.95;0.80;;;36.20;51.60;;;;;;5083632;28;20070;-54
2022/08/30 10:55:13;;;;;;;80.47;72.10;;;36.30;50.20;;;;;;5088023;28;20033;-55
2022/08/30 10:57:39;;;;;;;5.25;4.20;;;37.00;49.10;;;;;;5088286;28;20058;-55
2022/08/30 11:00:15;;;;;;;1.50;0.80;;;37.10;49.10;;;;;;5088128;28;20028;-55
2022/08/30 11:03:20;;;;;;;1.10;1.00;;;37.20;48.60;;;;;;5088066;28;20024;-54
2022/08/30 11:05:53;;;;;;;1.10;1.00;;;37.10;47.80;;;;;;5088234;28;20028;-54
2022/08/30 11:09:00;;;;;;;1.15;0.88;;;37.10;47.60;;;;;;5088234;28;20410;-55
2022/08/30 11:11:43;;;;;;;1.05;0.90;;;37.40;46.50;;;;;;5075155;28;20017;-54
2022/08/30 11:14:13;;;;;;;1.95;0.60;;;36.60;49.40;;;;;;5076695;28;20020;-54
2022/08/30 11:16:46;;;;;;;2.70;0.90;;;37.00;48.70;;;;;;5059816;28;20369;-54
2022/08/30 11:19:25;;;;;;;0.77;0.63;;;36.50;49.40;;;;;;5072493;28;20472;-56
2022/08/30 11:21:51;;;;;;;1.30;0.75;;;36.90;49.90;;;;;;5072287;28;20368;-55
2022/08/30 11:24:18;;;;;;;1.00;0.88;;;37.30;48.10;;;;;;5080974;28;20081;-54
2022/08/30 11:26:43;;;;;;;0.65;0.65;;;37.10;48.10;;;;;;5068610;28;20070;-55
2022/08/30 11:29:40;;;;;;;1.33;0.77;;;37.10;49.00;;;;;;5071161;28;20032;-54
2022/08/30 11:32:11;;;;;;;0.60;0.60;;;36.50;48.80;;;;;;5070676;28;20020;-54
2022/08/30 11:34:46;;;;;;;0.80;0.80;;;37.00;49.30;;;;;;5071337;28;20105;-56
2022/08/30 11:37:43;;;;;;;2.25;0.93;;;37.10;49.00;;;;;;5071331;28;20085;-54
2022/08/30 11:40:19;;;;;;;2.95;1.23;;;37.50;47.20;;;;;;5071038;28;20449;-55
2022/08/30 11:42:47;;;;;;;1.08;1.00;;;37.00;47.50;;;;;;5070383;28;20098;-54
2022/08/30 11:45:22;;;;;;;2.55;1.00;;;37.10;48.20;;;;;;5071344;28;20047;-54
2022/08/30 11:47:51;;;;;;;0.75;0.60;;;37.10;47.80;;;;;;5071461;28;20033;-54
2022/08/30 11:50:24;;;;;;;1.08;0.90;;;37.40;48.40;;;;;;5071690;28;20431;-55
2022/08/30 11:53:20;;;;;;;3.25;1.20;;;36.10;49.20;;;;;;5077808;28;20020;-54
2022/08/30 11:56:15;;;;;;;1.48;1.00;;;34.40;51.10;;;;;;5074692;28;20025;-54
2022/08/30 11:59:05;;;;;;;0.88;0.88;;;33.30;53.40;;;;;;5050533;28;20076;-54
2022/08/30 12:01:34;;;;;;;0.75;0.75;;;32.50;52.60;;;;;;5050256;28;20488;-54
2022/08/30 12:04:15;;;;;;;1.98;0.75;;;31.30;54.10;;;;;;5048993;28;20047;-54
2022/08/30 12:06:40;;;;;;;1.48;1.20;;;30.50;54.90;;;;;;5050730;28;20151;-54
2022/08/30 12:09:08;;;;;;;3.45;0.90;;;29.60;57.40;;;;;;5050748;28;20111;-54
2022/08/30 12:11:34;;;;;;;0.70;0.70;;;28.80;59.40;;;;;;5050131;28;20106;-54
2022/08/30 12:14:02;;;;;;;1.42;1.10;;;28.20;60.00;;;;;;5049851;28;20055;-53
2022/08/30 12:18:26;;;;;;;1.13;0.90;;;27.60;62.00;;;;;;5049881;28;20032;-55
2022/08/30 12:19:25;;;;;;;2.28;1.10;;;27.30;63.50;;;;;;5050096;28;20040;-53
2022/08/30 12:21:58;;;;;;;1.00;1.00;;;27.70;64.40;;;;;;5049385;28;20036;-54
2022/08/30 12:24:33;;;;;;;2.67;1.02;;;28.10;61.30;;;;;;5056159;28;20491;-53
2022/08/30 12:27:04;;;;;;;3.53;1.42;;;28.60;61.70;;;;;;5078850;28;20467;-55
2022/08/30 12:29:30;;;;;;;150.60;108.53;;;28.70;61.70;;;;;;5064630;28;20024;-53
2022/08/30 12:32:13;;;;;;;42.45;35.47;;;28.80;61.40;;;;;;5048136;28;20044;-54
2022/08/30 12:34:44;;;;;;;2.38;1.80;;;28.30;62.60;;;;;;5052464;28;20020;-53
2022/08/30 12:37:49;;;;;;;1.15;1.10;;;27.90;62.90;;;;;;5067285;28;20016;-54
2022/08/30 12:40:18;;;;;;;2.45;1.27;;;27.90;63.60;;;;;;5052564;28;20025;-54
2022/08/30 12:42:57;;;;;;;1.98;1.10;;;28.60;60.80;;;;;;5080511;28;20239;-54
2022/08/30 12:45:32;;;;;;;2.78;1.00;;;28.80;61.00;;;;;;5067830;28;20395;-53
2022/08/30 12:48:02;;;;;;;2.22;1.20;;;28.60;60.20;;;;;;5049474;28;20029;-55
2022/08/30 12:50:32;;;;;;;1.60;1.00;;;28.60;59.80;;;;;;5048577;28;20036;-54
2022/08/30 12:53:09;;;;;;;1.10;0.80;;;28.30;61.00;;;;;;5068476;28;20024;-55
2022/08/30 12:55:51;;;;;;;3.70;0.88;;;28.50;60.20;;;;;;5088729;28;20259;-53
2022/08/30 12:58:16;;;;;;;1.73;1.10;;;28.70;61.40;;;;;;5087742;28;20552;-53
2022/08/30 13:00:44;;;;;;;1.15;1.05;;;28.90;60.40;;;;;;5088649;28;20103;-54